Time;durP1;ratioP1;P1;durP2;ratioP2;P2;SDS_P1;SDS_P2;PMS_P1;PMS_P2;Temp;Humidity;BMP_temperature;BMP_pressure;BME280_temperature;BME280_humidity;BME280_pressure;Samples;Min_cycle;Max_cycle;Signal;HPM_P1;HPM_P2
2022/06/18 00:00:45;;;;;;;6.15;2.08;;;23.10;71.20;;;;;;5015068;28;20410;-76
2022/06/18 00:03:11;;;;;;;7.60;2.50;;;23.10;71.10;;;;;;5016780;28;20026;-76
2022/06/18 00:05:37;;;;;;;4.50;1.85;;;23.00;71.30;;;;;;5016687;28;20077;-75
2022/06/18 00:08:06;;;;;;;6.95;2.60;;;23.10;71.60;;;;;;5016318;28;20458;-76
2022/06/18 00:10:32;;;;;;;4.40;2.15;;;23.00;71.60;;;;;;5016205;28;20141;-76
2022/06/18 00:13:39;;;;;;;7.72;2.40;;;23.00;71.70;;;;;;5015026;28;20033;-76
2022/06/18 00:16:08;;;;;;;6.05;2.58;;;23.00;72.20;;;;;;5015038;28;20743;-75
2022/06/18 00:18:34;;;;;;;4.10;2.20;;;22.90;72.20;;;;;;4998927;28;20036;-76
2022/06/18 00:21:00;;;;;;;4.22;2.35;;;22.90;72.70;;;;;;5016176;28;20034;-76
2022/06/18 00:23:28;;;;;;;4.97;2.53;;;22.80;73.20;;;;;;5016124;28;20080;-76
2022/06/18 00:25:54;;;;;;;7.07;2.53;;;22.70;73.70;;;;;;5014729;28;20018;-76
2022/06/18 00:28:23;;;;;;;6.30;2.50;;;22.70;74.10;;;;;;4998456;28;20154;-75
2022/06/18 00:30:50;;;;;;;4.43;2.17;;;22.60;74.50;;;;;;5015589;28;20073;-75
2022/06/18 00:33:16;;;;;;;6.18;2.63;;;22.60;74.70;;;;;;4998387;28;20062;-75
2022/06/18 00:35:43;;;;;;;5.63;2.95;;;22.50;74.70;;;;;;5014516;28;20045;-75
2022/06/18 00:38:23;;;;;;;9.60;3.15;;;22.40;74.90;;;;;;5015478;28;20145;-76
2022/06/18 00:40:49;;;;;;;7.05;3.13;;;22.40;75.40;;;;;;5014156;28;20037;-75
2022/06/18 00:43:47;;;;;;;4.75;2.95;;;22.30;75.60;;;;;;5014368;28;20034;-75
2022/06/18 00:46:38;;;;;;;5.28;2.33;;;22.30;76.20;;;;;;5014639;28;20116;-75
2022/06/18 00:49:13;;;;;;;6.63;2.40;;;22.20;76.10;;;;;;5013849;28;20029;-75
2022/06/18 00:52:03;;;;;;;6.32;2.60;;;22.20;76.00;;;;;;5013758;28;20083;-76
2022/06/18 00:54:42;;;;;;;5.38;2.60;;;22.10;75.80;;;;;;5015484;28;20022;-76
2022/06/18 00:57:22;;;;;;;5.15;2.80;;;22.10;75.60;;;;;;5014113;28;20084;-76
2022/06/18 01:00:01;;;;;;;4.18;2.40;;;22.10;75.60;;;;;;5013984;28;20198;-76
2022/06/18 01:02:37;;;;;;;5.32;2.28;;;22.10;75.40;;;;;;5014406;28;20446;-75
2022/06/18 01:05:18;;;;;;;6.00;2.70;;;22.10;75.50;;;;;;5013869;28;20029;-75
2022/06/18 01:07:46;;;;;;;4.35;2.50;;;22.10;75.50;;;;;;5015455;28;20051;-76
2022/06/18 01:10:21;;;;;;;4.97;2.28;;;22.10;75.60;;;;;;5013604;28;20030;-75
2022/06/18 01:12:46;;;;;;;6.10;2.72;;;22.10;76.30;;;;;;5013778;28;20056;-76
2022/06/18 01:15:20;;;;;;;4.65;2.58;;;22.00;76.60;;;;;;4997705;28;20419;-76
2022/06/18 01:17:47;;;;;;;6.45;2.90;;;22.00;76.70;;;;;;5014977;28;20419;-75
2022/06/18 01:20:13;;;;;;;10.32;2.38;;;21.90;76.90;;;;;;4997397;28;20100;-76
2022/06/18 01:23:03;;;;;;;4.38;2.33;;;22.00;77.00;;;;;;5013667;28;20121;-75
2022/06/18 01:25:31;;;;;;;6.00;2.55;;;22.00;77.30;;;;;;5014725;28;20545;-75
2022/06/18 01:27:57;;;;;;;4.28;2.42;;;21.90;77.30;;;;;;5013813;28;20018;-76
2022/06/18 01:30:25;;;;;;;5.50;2.33;;;21.90;77.60;;;;;;5009852;28;20038;-76
2022/06/18 01:32:53;;;;;;;5.68;2.33;;;21.90;78.10;;;;;;5004666;28;20033;-75
2022/06/18 01:35:20;;;;;;;4.85;2.72;;;21.90;78.80;;;;;;5012491;28;20034;-76
2022/06/18 01:37:47;;;;;;;7.05;2.70;;;21.80;78.20;;;;;;5013530;28;20025;-76
2022/06/18 01:40:17;;;;;;;4.07;2.47;;;21.80;78.20;;;;;;4997025;28;20077;-76
2022/06/18 01:42:46;;;;;;;5.90;2.40;;;21.80;78.10;;;;;;5013083;28;20026;-75
2022/06/18 01:45:21;;;;;;;4.55;2.58;;;21.70;77.90;;;;;;5014362;28;20030;-75
2022/06/18 01:48:07;;;;;;;10.40;3.30;;;21.70;77.80;;;;;;5029460;28;20025;-75
2022/06/18 01:50:33;;;;;;;4.57;2.67;;;21.70;78.00;;;;;;5012883;28;20038;-76
2022/06/18 01:53:25;;;;;;;7.45;3.30;;;21.70;78.20;;;;;;5013315;28;20026;-76
2022/06/18 01:55:56;;;;;;;6.28;2.90;;;21.60;78.40;;;;;;5013147;28;20018;-75
2022/06/18 01:58:29;;;;;;;4.63;2.88;;;21.60;78.40;;;;;;5012865;28;20022;-76
2022/06/18 02:00:58;;;;;;;4.05;2.55;;;21.60;78.40;;;;;;5013948;28;20046;-75
2022/06/18 02:03:24;;;;;;;5.82;2.95;;;21.60;78.60;;;;;;5012724;28;20026;-76
2022/06/18 02:05:50;;;;;;;4.70;2.78;;;21.50;78.90;;;;;;5014056;28;20034;-75
2022/06/18 02:08:18;;;;;;;8.27;3.20;;;21.50;79.30;;;;;;5012921;28;20112;-75
2022/06/18 02:10:57;;;;;;;5.68;3.53;;;21.50;79.40;;;;;;5012537;28;20038;-76
2022/06/18 02:13:28;;;;;;;5.50;3.13;;;21.40;79.20;;;;;;5014123;28;20018;-75
2022/06/18 02:15:56;;;;;;;4.32;3.22;;;21.40;79.00;;;;;;5014009;28;20044;-76
2022/06/18 02:18:23;;;;;;;8.60;3.40;;;21.40;79.00;;;;;;5012517;28;20025;-76
2022/06/18 02:20:52;;;;;;;6.63;3.50;;;21.30;78.90;;;;;;5013973;28;20037;-75
2022/06/18 02:23:20;;;;;;;6.22;3.47;;;21.30;78.80;;;;;;5013719;28;20029;-75
2022/06/18 02:25:46;;;;;;;6.28;3.33;;;21.20;78.90;;;;;;5013808;28;20030;-75
2022/06/18 02:28:24;;;;;;;5.13;3.25;;;21.20;79.20;;;;;;5014042;28;20034;-75
2022/06/18 02:30:52;;;;;;;5.30;3.38;;;21.20;79.40;;;;;;5013754;28;20036;-76
2022/06/18 02:33:29;;;;;;;5.78;3.47;;;21.20;79.40;;;;;;4996569;28;20037;-76
2022/06/18 02:35:59;;;;;;;6.50;3.53;;;21.10;79.20;;;;;;5012466;28;20057;-76
2022/06/18 02:38:25;;;;;;;7.18;3.80;;;21.10;78.90;;;;;;5013779;28;20471;-76
2022/06/18 02:40:51;;;;;;;5.50;3.83;;;21.10;78.60;;;;;;5013787;28;20034;-76
2022/06/18 02:43:20;;;;;;;6.85;4.03;;;21.00;78.60;;;;;;5012846;28;20030;-76
2022/06/18 02:45:51;;;;;;;9.15;4.20;;;21.00;78.60;;;;;;5029282;28;20536;-76
2022/06/18 02:48:17;;;;;;;6.05;3.72;;;21.00;78.70;;;;;;5013948;28;20053;-75
2022/06/18 02:50:43;;;;;;;6.90;4.10;;;20.90;78.50;;;;;;5012616;28;20402;-76
2022/06/18 02:53:12;;;;;;;9.13;4.57;;;20.90;78.40;;;;;;5013583;28;20793;-76
2022/06/18 02:55:41;;;;;;;7.22;4.30;;;20.90;78.40;;;;;;5013641;28;20041;-76
2022/06/18 02:58:13;;;;;;;6.60;4.75;;;20.90;78.50;;;;;;5012250;28;20025;-75
2022/06/18 03:00:43;;;;;;;9.65;5.13;;;20.80;78.60;;;;;;5013300;28;20057;-75
2022/06/18 03:03:11;;;;;;;8.20;4.80;;;20.80;78.60;;;;;;5012385;28;20573;-75
2022/06/18 03:05:38;;;;;;;7.97;4.68;;;20.80;79.40;;;;;;5012133;28;20458;-76
2022/06/18 03:08:04;;;;;;;8.57;4.65;;;20.70;78.80;;;;;;5012240;28;20022;-75
2022/06/18 03:13:18;;;;;;;8.45;4.18;;;20.70;78.90;;;;;;5014095;28;20492;-76
2022/06/18 03:15:44;;;;;;;6.90;5.05;;;20.60;78.90;;;;;;5000418;28;20026;-76
2022/06/18 03:18:10;;;;;;;7.97;5.10;;;20.70;79.00;;;;;;5015795;28;20118;-76
2022/06/18 03:20:56;;;;;;;8.43;5.15;;;20.60;78.90;;;;;;5016970;28;20113;-76
2022/06/18 03:23:23;;;;;;;6.93;4.60;;;20.60;79.90;;;;;;5015174;28;20498;-76
2022/06/18 03:25:49;;;;;;;7.47;5.15;;;20.70;79.40;;;;;;5016080;28;20505;-76
2022/06/18 03:28:15;;;;;;;8.48;4.57;;;20.60;79.40;;;;;;4999389;28;20176;-76
2022/06/18 03:30:44;;;;;;;6.50;4.72;;;20.70;79.60;;;;;;5017301;28;20030;-76
2022/06/18 03:33:10;;;;;;;8.88;5.32;;;20.60;79.70;;;;;;5017099;28;20030;-76
2022/06/18 03:35:39;;;;;;;9.07;5.20;;;20.60;79.70;;;;;;5015488;28;20029;-76
2022/06/18 03:38:05;;;;;;;7.78;5.45;;;20.70;79.80;;;;;;5015798;28;20382;-76
2022/06/18 03:40:31;;;;;;;10.43;5.55;;;20.60;79.80;;;;;;5015632;28;20109;-77
2022/06/18 03:42:56;;;;;;;9.60;5.63;;;20.60;79.90;;;;;;5015380;28;20030;-76
2022/06/18 03:45:22;;;;;;;9.68;6.40;;;20.60;80.10;;;;;;5015142;28;20470;-76
2022/06/18 03:47:48;;;;;;;8.27;5.30;;;20.60;80.20;;;;;;5016685;28;20050;-75
2022/06/18 03:50:19;;;;;;;10.52;5.93;;;20.60;80.80;;;;;;5016723;28;20076;-76
2022/06/18 03:52:45;;;;;;;11.18;5.65;;;20.60;80.40;;;;;;5015126;28;20069;-76
2022/06/18 03:55:15;;;;;;;10.95;5.20;;;20.70;80.50;;;;;;5015058;28;20072;-75
2022/06/18 03:57:41;;;;;;;8.10;5.70;;;20.60;80.60;;;;;;5015152;28;20034;-76
2022/06/18 04:00:10;;;;;;;8.75;5.40;;;20.60;80.60;;;;;;5015801;28;20045;-76
2022/06/18 04:02:36;;;;;;;8.27;5.28;;;20.60;80.80;;;;;;5015393;28;20030;-76
2022/06/18 04:05:02;;;;;;;10.20;5.97;;;20.60;81.30;;;;;;5015300;28;20381;-76
2022/06/18 04:07:27;;;;;;;10.52;5.75;;;20.70;80.70;;;;;;4997938;28;20037;-76
2022/06/18 04:09:54;;;;;;;8.43;6.43;;;20.60;80.60;;;;;;5013951;28;20080;-75
2022/06/18 04:12:20;;;;;;;10.40;6.65;;;20.60;80.50;;;;;;5013925;28;20034;-75
2022/06/18 04:14:45;;;;;;;8.93;5.88;;;20.60;80.60;;;;;;5014912;28;20033;-76
2022/06/18 04:17:16;;;;;;;9.75;6.60;;;20.60;80.60;;;;;;5013529;28;20034;-76
2022/06/18 04:19:42;;;;;;;10.45;6.75;;;20.60;80.60;;;;;;4997226;28;20127;-75
2022/06/18 04:22:08;;;;;;;10.40;6.32;;;20.60;80.60;;;;;;5030488;28;20026;-76
2022/06/18 04:24:35;;;;;;;9.20;6.05;;;20.60;80.50;;;;;;5013370;28;20022;-75
2022/06/18 04:27:01;;;;;;;12.07;6.30;;;20.60;80.50;;;;;;5011977;28;20068;-75
2022/06/18 04:29:28;;;;;;;12.00;6.93;;;20.60;80.50;;;;;;4996773;28;20525;-76
2022/06/18 04:31:54;;;;;;;8.70;5.97;;;20.60;80.50;;;;;;5012790;28;20087;-76
2022/06/18 04:34:19;;;;;;;13.82;7.03;;;20.60;80.40;;;;;;5002370;28;20024;-75
2022/06/18 04:36:45;;;;;;;11.63;7.20;;;20.60;80.40;;;;;;4989395;28;20026;-76
2022/06/18 04:39:12;;;;;;;10.02;6.72;;;20.60;80.50;;;;;;4996780;28;20050;-75
2022/06/18 04:41:38;;;;;;;11.45;6.97;;;20.70;80.70;;;;;;4977568;28;20130;-75
2022/06/18 04:44:05;;;;;;;9.52;6.28;;;20.70;80.80;;;;;;4977513;28;20030;-76
2022/06/18 04:46:31;;;;;;;11.88;7.13;;;20.70;81.00;;;;;;4995025;28;20423;-75
2022/06/18 04:48:57;;;;;;;10.25;7.40;;;20.70;81.10;;;;;;4993737;28;20040;-76
2022/06/18 04:51:23;;;;;;;17.15;7.43;;;20.70;81.20;;;;;;4994812;28;20034;-75
2022/06/18 04:53:48;;;;;;;11.52;7.28;;;20.70;81.30;;;;;;4994709;28;20406;-75
2022/06/18 04:56:14;;;;;;;9.25;6.85;;;20.70;81.30;;;;;;4993738;28;20018;-75
2022/06/18 04:58:40;;;;;;;9.82;6.63;;;20.80;81.40;;;;;;4993674;28;20058;-76
2022/06/18 05:01:06;;;;;;;12.52;7.65;;;20.80;81.50;;;;;;4955177;28;1130455;-76
2022/06/18 05:03:32;;;;;;;9.35;6.63;;;20.80;81.40;;;;;;4978115;28;20041;-76
2022/06/18 05:05:58;;;;;;;12.38;7.45;;;20.80;81.40;;;;;;4995592;28;20030;-76
2022/06/18 05:08:25;;;;;;;12.00;6.78;;;20.90;82.00;;;;;;4995434;28;20101;-76
2022/06/18 05:10:52;;;;;;;9.63;7.00;;;20.90;81.50;;;;;;4994172;28;20409;-76
2022/06/18 05:13:18;;;;;;;11.27;7.80;;;20.90;81.50;;;;;;4994216;28;20061;-76
2022/06/18 05:15:45;;;;;;;9.50;6.97;;;20.90;81.50;;;;;;4994301;28;20019;-76
2022/06/18 05:18:16;;;;;;;9.98;6.80;;;21.00;81.50;;;;;;4996765;28;20105;-76
2022/06/18 05:20:43;;;;;;;14.88;8.32;;;21.00;81.50;;;;;;5003072;28;20085;-75
2022/06/18 05:23:13;;;;;;;12.50;8.55;;;21.10;81.50;;;;;;5003280;28;20125;-76
2022/06/18 05:25:39;;;;;;;13.25;7.70;;;21.10;82.10;;;;;;4999169;28;20036;-76
2022/06/18 05:28:05;;;;;;;11.00;8.38;;;21.10;81.30;;;;;;5012587;28;20117;-75
2022/06/18 05:30:30;;;;;;;16.70;7.80;;;21.10;81.30;;;;;;5013429;28;20026;-75
2022/06/18 05:32:56;;;;;;;11.82;7.00;;;21.20;81.50;;;;;;5013682;28;20030;-76
2022/06/18 05:35:22;;;;;;;12.02;7.63;;;21.20;81.50;;;;;;4983221;28;20034;-75
2022/06/18 05:37:50;;;;;;;9.98;6.75;;;21.20;81.60;;;;;;5008256;28;20033;-76
2022/06/18 05:40:16;;;;;;;12.63;7.63;;;21.30;81.70;;;;;;5000908;28;20038;-75
2022/06/18 05:42:42;;;;;;;16.70;7.63;;;21.30;81.70;;;;;;5006881;28;20044;-75
2022/06/18 05:45:08;;;;;;;12.63;6.97;;;21.30;81.90;;;;;;5010729;28;20034;-76
2022/06/18 05:47:34;;;;;;;9.70;7.45;;;21.40;82.00;;;;;;5011247;28;20443;-75
2022/06/18 05:50:02;;;;;;;12.35;7.55;;;21.40;81.90;;;;;;4994959;28;20066;-76
2022/06/18 05:52:29;;;;;;;13.82;8.32;;;21.40;82.10;;;;;;4994806;28;20026;-76
2022/06/18 05:54:55;;;;;;;13.70;8.30;;;21.40;82.00;;;;;;4994564;28;20022;-76
2022/06/18 05:57:21;;;;;;;14.85;8.57;;;21.50;82.00;;;;;;4994634;28;20114;-75
2022/06/18 05:59:48;;;;;;;13.27;7.40;;;21.50;82.10;;;;;;4994830;28;20474;-75
2022/06/18 06:02:16;;;;;;;16.80;7.82;;;21.60;82.00;;;;;;4994691;28;20065;-74
2022/06/18 06:04:42;;;;;;;11.25;7.30;;;21.60;81.90;;;;;;4993508;28;20214;-74
2022/06/18 06:07:17;;;;;;;11.25;7.70;;;21.60;81.70;;;;;;4993128;28;20142;-74
2022/06/18 06:12:28;;;;;;;14.52;8.05;;;21.70;81.60;;;;;;4993834;28;20508;-75
2022/06/18 06:14:56;;;;;;;14.13;7.80;;;21.70;81.50;;;;;;4993350;28;20034;-75
2022/06/18 06:17:23;;;;;;;13.45;7.05;;;21.80;81.50;;;;;;4977221;28;20069;-76
2022/06/18 06:19:49;;;;;;;9.13;6.20;;;21.80;81.50;;;;;;4993130;28;20045;-75
2022/06/18 06:22:15;;;;;;;10.40;6.65;;;21.80;81.40;;;;;;4992912;28;20028;-75
2022/06/18 06:24:41;;;;;;;14.07;6.65;;;21.80;81.20;;;;;;4977184;28;20030;-75
2022/06/18 06:27:08;;;;;;;12.05;7.40;;;21.90;81.20;;;;;;5001189;28;20022;-74
2022/06/18 06:29:34;;;;;;;13.27;7.00;;;21.90;81.20;;;;;;5009265;28;20506;-75
2022/06/18 06:32:00;;;;;;;10.75;7.03;;;22.00;81.10;;;;;;5013322;28;20098;-75
2022/06/18 06:34:25;;;;;;;11.93;6.45;;;22.00;81.00;;;;;;5011706;28;20022;-75
2022/06/18 06:36:51;;;;;;;12.82;6.78;;;22.10;81.00;;;;;;4995210;28;20022;-75
2022/06/18 06:39:17;;;;;;;14.23;7.43;;;22.10;80.90;;;;;;4995009;28;20036;-75
2022/06/18 06:41:44;;;;;;;14.00;7.13;;;22.20;80.80;;;;;;5021403;28;20037;-75
2022/06/18 06:44:10;;;;;;;15.95;7.40;;;22.20;80.80;;;;;;5002659;28;20080;-75
2022/06/18 06:46:36;;;;;;;12.65;8.10;;;22.30;80.90;;;;;;5010776;28;20084;-75
2022/06/18 06:49:02;;;;;;;10.73;6.28;;;22.30;80.80;;;;;;5015722;28;20030;-75
2022/06/18 06:51:30;;;;;;;12.05;6.82;;;22.30;80.60;;;;;;5016068;28;20079;-75
2022/06/18 06:53:56;;;;;;;15.23;8.25;;;22.40;80.50;;;;;;5013868;28;20481;-74
2022/06/18 06:59:08;;;;;;;12.32;6.65;;;22.40;80.10;;;;;;5013737;28;20072;-73
2022/06/18 07:01:34;;;;;;;11.38;6.63;;;22.50;80.10;;;;;;5004431;28;20482;-74
2022/06/18 07:04:01;;;;;;;16.30;8.10;;;22.50;80.00;;;;;;5017084;28;20096;-75
2022/06/18 07:06:26;;;;;;;11.32;6.72;;;22.50;79.90;;;;;;5015907;28;20366;-75
2022/06/18 07:08:52;;;;;;;12.82;7.25;;;22.60;79.90;;;;;;4999361;28;20037;-76
2022/06/18 07:11:18;;;;;;;11.93;6.63;;;22.70;79.90;;;;;;5016148;28;20038;-75
2022/06/18 07:13:44;;;;;;;10.00;6.00;;;22.70;79.70;;;;;;4999597;28;20557;-75
2022/06/18 07:16:15;;;;;;;12.35;7.03;;;22.70;79.60;;;;;;5016232;28;20033;-75
2022/06/18 07:18:41;;;;;;;14.80;7.75;;;22.80;79.50;;;;;;5015982;28;20029;-74
2022/06/18 07:21:12;;;;;;;12.43;6.70;;;22.80;79.30;;;;;;5015615;28;20500;-74
2022/06/18 07:23:38;;;;;;;12.00;6.57;;;22.90;79.30;;;;;;5032504;28;20094;-75
2022/06/18 07:26:04;;;;;;;13.25;7.47;;;22.90;78.90;;;;;;4983680;28;20070;-75
2022/06/18 07:28:30;;;;;;;12.32;6.95;;;22.90;78.70;;;;;;5015947;28;20033;-75
2022/06/18 07:30:56;;;;;;;12.73;7.82;;;22.90;78.60;;;;;;4999390;28;20030;-74
2022/06/18 07:33:26;;;;;;;12.35;7.22;;;23.00;78.70;;;;;;5032319;28;20121;-75
2022/06/18 07:35:52;;;;;;;15.77;7.97;;;23.00;78.70;;;;;;5016778;28;20053;-76
2022/06/18 07:38:18;;;;;;;15.10;8.23;;;23.00;78.60;;;;;;5015622;28;20055;-78
2022/06/18 07:40:52;;;;;;;16.27;7.50;;;23.10;78.70;;;;;;5016735;28;20092;-76
2022/06/18 07:43:24;;;;;;;15.25;7.88;;;23.20;78.60;;;;;;5031979;28;20029;-77
2022/06/18 07:45:50;;;;;;;13.88;7.70;;;23.30;78.70;;;;;;5015245;28;20029;-76
2022/06/18 07:48:16;;;;;;;12.23;7.60;;;23.30;78.60;;;;;;5017048;28;20036;-76
2022/06/18 07:50:43;;;;;;;16.02;8.10;;;23.30;78.60;;;;;;4998965;28;20057;-76
2022/06/18 07:53:18;;;;;;;11.40;6.95;;;23.40;78.60;;;;;;4998237;28;20553;-74
2022/06/18 07:55:44;;;;;;;10.55;6.25;;;23.40;78.50;;;;;;5015405;28;20362;-75
2022/06/18 07:58:11;;;;;;;12.45;5.85;;;23.50;78.40;;;;;;5015014;28;20026;-72
2022/06/18 08:00:42;;;;;;;15.98;6.50;;;23.60;78.30;;;;;;5015654;28;20061;-74
2022/06/18 08:03:09;;;;;;;11.10;6.43;;;23.60;78.00;;;;;;5016397;28;20028;-75
2022/06/18 08:05:35;;;;;;;12.40;6.32;;;23.70;77.80;;;;;;5016283;28;20030;-75
2022/06/18 08:08:02;;;;;;;12.05;6.22;;;23.80;77.80;;;;;;5016139;28;20044;-75
2022/06/18 08:10:28;;;;;;;14.30;6.90;;;23.90;77.60;;;;;;5014502;28;20539;-74
2022/06/18 08:12:54;;;;;;;13.30;6.97;;;23.90;77.30;;;;;;5015979;28;20034;-74
2022/06/18 08:15:20;;;;;;;11.30;6.03;;;24.00;77.20;;;;;;5014737;28;20354;-75
2022/06/18 08:17:45;;;;;;;13.50;6.63;;;24.00;77.20;;;;;;5015818;28;20026;-75
2022/06/18 08:20:11;;;;;;;14.25;6.70;;;24.10;77.00;;;;;;5015970;28;20362;-74
2022/06/18 08:22:40;;;;;;;13.35;6.10;;;24.10;76.80;;;;;;5016309;28;20037;-72
2022/06/18 08:25:08;;;;;;;9.82;5.03;;;24.20;76.50;;;;;;5015776;28;20481;-75
2022/06/18 08:27:35;;;;;;;9.98;5.45;;;24.30;76.20;;;;;;5015954;28;20050;-75
2022/06/18 08:30:01;;;;;;;11.93;4.47;;;24.30;76.20;;;;;;5015687;28;20055;-75
2022/06/18 08:32:27;;;;;;;11.27;5.05;;;24.40;75.90;;;;;;5015930;28;20529;-75
2022/06/18 08:34:52;;;;;;;9.32;4.70;;;24.50;75.40;;;;;;5015506;28;20022;-76
2022/06/18 08:37:18;;;;;;;11.35;4.68;;;24.50;75.10;;;;;;5015461;28;20022;-75
2022/06/18 08:39:43;;;;;;;10.00;3.92;;;24.60;74.90;;;;;;5014732;28;20026;-75
2022/06/18 08:42:25;;;;;;;12.25;4.57;;;24.70;74.80;;;;;;5012806;28;20029;-75
2022/06/18 08:45:15;;;;;;;11.32;4.93;;;24.80;74.60;;;;;;5004454;28;20034;-75
2022/06/18 08:47:56;;;;;;;13.30;5.72;;;24.90;74.60;;;;;;4995440;28;20098;-76
2022/06/18 08:50:46;;;;;;;12.15;5.20;;;25.00;74.40;;;;;;4996117;28;20125;-76
2022/06/18 08:53:31;;;;;;;11.00;5.03;;;25.10;74.30;;;;;;4995730;28;20030;-76
2022/06/18 08:56:11;;;;;;;11.00;5.47;;;25.20;74.30;;;;;;5010896;28;20074;-76
2022/06/18 08:59:00;;;;;;;9.90;4.18;;;25.30;74.10;;;;;;4995708;28;20081;-76
2022/06/18 09:01:34;;;;;;;11.10;4.13;;;25.40;73.90;;;;;;4995592;28;20054;-73
2022/06/18 09:04:31;;;;;;;10.02;4.30;;;25.40;73.60;;;;;;4995635;28;20033;-72
2022/06/18 09:07:06;;;;;;;10.52;4.57;;;25.60;73.60;;;;;;5000887;28;20049;-73
2022/06/18 09:09:56;;;;;;;14.95;4.93;;;25.70;73.40;;;;;;5010972;28;20029;-72
2022/06/18 09:12:30;;;;;;;8.43;4.13;;;25.80;73.10;;;;;;5012497;28;20037;-73
2022/06/18 09:15:03;;;;;;;9.07;4.22;;;25.90;72.90;;;;;;5000620;28;20438;-74
2022/06/18 09:17:39;;;;;;;12.32;4.68;;;26.00;72.90;;;;;;4995316;28;20026;-73
2022/06/18 09:20:17;;;;;;;11.13;5.35;;;26.10;72.70;;;;;;4997829;28;20490;-72
2022/06/18 09:22:49;;;;;;;10.45;5.07;;;26.20;72.30;;;;;;4995076;28;20109;-73
2022/06/18 09:25:17;;;;;;;9.50;4.15;;;26.30;71.80;;;;;;4995019;28;20026;-74
2022/06/18 09:27:55;;;;;;;8.60;3.85;;;26.40;71.60;;;;;;4995066;28;20109;-76
2022/06/18 09:30:46;;;;;;;11.80;4.43;;;26.50;71.30;;;;;;4993337;28;20037;-73
2022/06/18 09:33:32;;;;;;;9.85;4.35;;;26.60;70.80;;;;;;4994742;28;20026;-73
2022/06/18 09:36:26;;;;;;;13.65;4.25;;;26.70;70.40;;;;;;4995033;28;20113;-74
2022/06/18 09:39:06;;;;;;;9.88;4.05;;;26.80;70.20;;;;;;4991589;28;20053;-73
2022/06/18 09:42:00;;;;;;;8.45;3.83;;;26.90;69.70;;;;;;4994977;28;20097;-75
2022/06/18 09:44:40;;;;;;;7.40;3.42;;;27.10;69.20;;;;;;4993525;28;20375;-76
2022/06/18 09:47:13;;;;;;;11.85;4.18;;;27.20;68.80;;;;;;4993644;28;20029;-75
2022/06/18 09:49:41;;;;;;;8.95;3.30;;;27.40;68.50;;;;;;4994694;28;20026;-74
2022/06/18 09:52:31;;;;;;;12.70;4.30;;;27.40;68.10;;;;;;4993528;28;20109;-76
2022/06/18 09:55:01;;;;;;;11.88;3.67;;;27.50;67.60;;;;;;4994527;28;20098;-76
2022/06/18 09:57:32;;;;;;;9.77;4.05;;;27.60;67.30;;;;;;4994385;28;20034;-74
2022/06/18 10:00:14;;;;;;;7.88;3.55;;;27.70;66.90;;;;;;4993161;28;20050;-74
2022/06/18 10:02:52;;;;;;;11.63;3.70;;;27.80;66.40;;;;;;4994651;28;20023;-75
2022/06/18 10:08:19;;;;;;;9.43;3.63;;;28.10;65.90;;;;;;4994564;28;20518;-77
2022/06/18 10:10:54;;;;;;;10.75;4.15;;;28.20;65.50;;;;;;4994314;28;20696;-78
2022/06/18 10:13:25;;;;;;;10.30;3.60;;;28.20;65.20;;;;;;4994238;28;20057;-75
2022/06/18 10:15:55;;;;;;;9.02;4.18;;;28.30;65.10;;;;;;4996517;28;20018;-76
2022/06/18 10:18:38;;;;;;;9.20;2.80;;;28.30;64.80;;;;;;4994145;28;20414;-74
2022/06/18 10:21:43;;;;;;;8.43;3.03;;;28.30;64.50;;;;;;5010183;28;20037;-73
2022/06/18 10:24:22;;;;;;;10.10;3.63;;;28.30;64.30;;;;;;5009537;28;20502;-74
2022/06/18 10:26:58;;;;;;;9.07;2.88;;;28.40;64.20;;;;;;5001059;28;20057;-74
2022/06/18 10:29:38;;;;;;;8.90;2.90;;;28.40;63.70;;;;;;5008893;28;20026;-75
2022/06/18 10:32:38;;;;;;;9.05;3.10;;;28.40;63.10;;;;;;5007482;28;20026;-74
2022/06/18 10:35:22;;;;;;;7.32;2.72;;;28.50;63.10;;;;;;4988383;28;20057;-76
2022/06/18 10:38:22;;;;;;;11.02;3.47;;;28.60;63.00;;;;;;5004461;28;20027;-77
2022/06/18 10:41:02;;;;;;;9.65;2.80;;;28.70;63.00;;;;;;4994028;28;20125;-76
2022/06/18 10:43:42;;;;;;;9.25;2.92;;;28.80;62.80;;;;;;4993966;28;20097;-74
2022/06/18 10:46:19;;;;;;;9.77;3.63;;;29.00;62.80;;;;;;4994049;28;20033;-76
2022/06/18 10:48:58;;;;;;;10.02;3.15;;;29.10;61.80;;;;;;4992856;28;20023;-76
2022/06/18 10:51:26;;;;;;;10.32;2.92;;;29.30;61.20;;;;;;4993898;28;20019;-76
2022/06/18 10:53:58;;;;;;;11.75;2.95;;;29.50;60.50;;;;;;4993693;28;20031;-76
2022/06/18 10:56:27;;;;;;;9.93;3.47;;;29.60;59.70;;;;;;4993942;28;20026;-76
2022/06/18 10:58:59;;;;;;;8.05;3.20;;;29.80;59.40;;;;;;4993850;28;20047;-76
2022/06/18 11:01:46;;;;;;;11.45;2.95;;;29.90;59.00;;;;;;4993867;28;20537;-76
2022/06/18 11:04:26;;;;;;;9.80;3.25;;;30.00;58.50;;;;;;4992736;28;20038;-76
2022/06/18 11:07:04;;;;;;;8.93;2.40;;;30.30;58.50;;;;;;4992678;28;20085;-74
2022/06/18 11:09:33;;;;;;;8.95;2.75;;;30.40;58.30;;;;;;4993958;28;20027;-76
2022/06/18 11:12:05;;;;;;;7.75;3.05;;;30.50;57.90;;;;;;4993894;28;20041;-79
2022/06/18 11:14:41;;;;;;;11.00;3.78;;;30.80;57.70;;;;;;4993975;28;20023;-76
2022/06/18 11:17:21;;;;;;;8.82;2.65;;;30.90;57.10;;;;;;4993721;28;20073;-76
2022/06/18 11:19:50;;;;;;;8.27;2.50;;;31.00;56.70;;;;;;4993537;28;20051;-74
2022/06/18 11:22:27;;;;;;;6.60;2.22;;;31.20;56.70;;;;;;4992336;28;20025;-74
2022/06/18 11:24:55;;;;;;;10.07;2.97;;;31.40;56.00;;;;;;4993861;28;20022;-75
2022/06/18 11:27:21;;;;;;;6.75;2.10;;;31.60;55.50;;;;;;4992398;28;20431;-74
2022/06/18 11:29:50;;;;;;;8.13;3.15;;;31.70;54.80;;;;;;4993642;28;20484;-75
2022/06/18 11:32:24;;;;;;;12.15;2.75;;;31.90;54.60;;;;;;4993835;28;20105;-74
2022/06/18 11:34:53;;;;;;;7.05;2.88;;;32.00;54.10;;;;;;4995738;28;20374;-77
2022/06/18 11:37:21;;;;;;;7.50;2.70;;;32.10;53.80;;;;;;4997853;28;20045;-75
2022/06/18 11:40:03;;;;;;;11.05;3.15;;;32.30;53.60;;;;;;5016375;28;20451;-77
2022/06/18 11:42:39;;;;;;;8.27;2.63;;;32.50;53.00;;;;;;5016440;28;20092;-77
2022/06/18 11:45:41;;;;;;;9.50;2.83;;;32.60;52.80;;;;;;5015166;28;20113;-79
2022/06/18 11:48:31;;;;;;;10.65;2.65;;;32.80;52.50;;;;;;5014339;28;20033;-76
2022/06/18 11:51:07;;;;;;;8.13;2.78;;;32.90;52.50;;;;;;5032035;28;20125;-74
2022/06/18 11:54:07;;;;;;;10.13;2.63;;;33.10;52.20;;;;;;5015104;28;20500;-78
2022/06/18 11:56:47;;;;;;;9.60;3.20;;;33.40;52.30;;;;;;5016777;28;20104;-76
2022/06/18 11:59:18;;;;;;;8.73;2.15;;;33.60;51.60;;;;;;5014959;28;20022;-74
2022/06/18 12:01:52;;;;;;;11.57;2.50;;;33.70;51.10;;;;;;5016059;28;20050;-75
2022/06/18 12:04:24;;;;;;;7.60;2.70;;;33.90;50.60;;;;;;5016165;28;20022;-76
2022/06/18 12:07:08;;;;;;;8.37;2.80;;;34.00;50.30;;;;;;5016234;28;20116;-77
2022/06/18 12:09:33;;;;;;;7.20;2.55;;;34.20;50.00;;;;;;5016409;28;20022;-76
2022/06/18 12:12:38;;;;;;;9.52;2.33;;;34.30;50.30;;;;;;5015079;28;20117;-74
2022/06/18 12:15:26;;;;;;;7.00;2.53;;;34.50;49.30;;;;;;5014828;28;20041;-76
2022/06/18 12:18:00;;;;;;;6.32;2.67;;;34.60;49.20;;;;;;5010326;28;20027;-77
2022/06/18 12:20:26;;;;;;;6.40;2.38;;;34.80;49.30;;;;;;5021901;28;20026;-77
2022/06/18 12:23:02;;;;;;;7.95;2.95;;;34.90;49.30;;;;;;5004974;28;20023;-76
2022/06/18 12:25:45;;;;;;;8.10;2.53;;;35.10;49.00;;;;;;4996247;28;20034;-76
2022/06/18 12:28:10;;;;;;;;;;;35.20;49.20;;;;;;4997382;28;20022;-77
2022/06/18 12:30:51;;;;;;;9.70;2.65;;;35.40;49.00;;;;;;4994779;28;20350;-74
2022/06/18 12:33:36;;;;;;;10.07;2.33;;;35.50;48.40;;;;;;4996185;28;20030;-77
2022/06/18 12:36:16;;;;;;;7.72;3.00;;;35.70;47.90;;;;;;4994978;28;20020;-76
2022/06/18 12:39:12;;;;;;;7.95;2.72;;;35.70;47.80;;;;;;4995966;28;20037;-77
2022/06/18 12:42:02;;;;;;;10.43;2.42;;;35.80;47.30;;;;;;5010875;28;20038;-77
2022/06/18 12:44:46;;;;;;;11.23;2.83;;;35.80;47.40;;;;;;4996161;28;20030;-76
2022/06/18 12:47:30;;;;;;;10.00;2.60;;;35.70;47.30;;;;;;4995037;28;20038;-77
2022/06/18 12:50:05;;;;;;;11.60;3.28;;;35.70;47.10;;;;;;4996015;28;20024;-77
2022/06/18 12:52:43;;;;;;;8.05;2.75;;;35.70;47.00;;;;;;4995678;28;20023;-77
2022/06/18 12:55:21;;;;;;;7.53;2.35;;;35.70;46.60;;;;;;4996149;28;20081;-76
2022/06/18 12:58:01;;;;;;;8.15;2.25;;;35.80;46.60;;;;;;4995890;28;20108;-76
2022/06/18 13:00:49;;;;;;;9.98;2.65;;;35.80;46.70;;;;;;4995480;28;20046;-76
2022/06/18 13:03:52;;;;;;;10.50;3.15;;;35.90;46.40;;;;;;4994258;28;20026;-77
2022/06/18 13:06:38;;;;;;;10.10;3.03;;;36.10;46.30;;;;;;4995659;28;20470;-77
2022/06/18 13:09:10;;;;;;;8.45;2.95;;;36.20;46.20;;;;;;4995570;28;20433;-76
2022/06/18 13:11:56;;;;;;;10.90;2.90;;;36.50;45.80;;;;;;4995709;28;20138;-77
2022/06/18 13:14:31;;;;;;;8.43;2.58;;;36.60;45.40;;;;;;4994297;28;20080;-77
2022/06/18 13:17:02;;;;;;;8.32;2.65;;;36.80;45.60;;;;;;4995187;28;20033;-78
2022/06/18 13:19:36;;;;;;;6.95;2.35;;;36.90;45.30;;;;;;4994016;28;20033;-76